Terminal Aerodrome Forecast
Issued by NWS

Home | Current Version | Previous Version | Text Only | Print | Product List | Glossary On
Versions: 1 2 3 4 5 6 7 8 9 10 11 12 13 14 15 16 17 18 19 20 21 22 23 24 25 26 27 28 29
000
FTUS44 KFWD 051136
TAFFTW
TAF
KFTW 051136Z 0512/0612 14012KT P6SM SCT012 BKN120
     FM051400 15014KT P6SM BKN012
     FM051700 15015KT P6SM BKN025
     FM051900 15017KT P6SM BKN040
     FM052300 15016KT P6SM VCTS BKN040CB
     FM060200 15017KT P6SM SHRA VCTS BKN025CB
     FM060500 16016KT P6SM VCSH BKN018
     FM061000 16015KT P6SM BKN017=

USA.gov is the U.S. government's official web portal to all federal, state and local government web resources and services.